Time;durP1;ratioP1;P1;durP2;ratioP2;P2;SDS_P1;SDS_P2;PMS_P1;PMS_P2;Temp;Humidity;BMP_temperature;BMP_pressure;BME280_temperature;BME280_humidity;BME280_pressure;Samples;Min_cycle;Max_cycle;Signal;HPM_P1;HPM_P2
2022/01/16 00:00:17;;;;;;;12.10;2.95;;;;;;;4.39;44.74;99659.03;4502492;31;20092;-83
2022/01/16 00:05:29;;;;;;;12.95;3.45;;;;;;;4.37;45.15;99666.88;4502375;31;20447;-83
2022/01/16 00:07:55;;;;;;;14.40;3.55;;;;;;;4.34;45.27;99666.91;4488266;31;20083;-83
2022/01/16 00:10:22;;;;;;;11.15;3.30;;;;;;;4.07;45.68;99648.16;4502318;31;20495;-83
2022/01/16 00:12:48;;;;;;;11.50;3.45;;;;;;;4.21;45.47;99647.09;4502361;31;20151;-83
2022/01/16 00:15:15;;;;;;;13.02;3.08;;;;;;;4.26;45.44;99642.69;4502405;31;20088;-83
2022/01/16 00:17:52;;;;;;;11.55;3.47;;;;;;;4.29;45.56;99619.19;4502248;31;20140;-83
2022/01/16 00:20:18;;;;;;;10.98;3.12;;;;;;;4.29;45.56;99634.84;4487827;31;20172;-83
2022/01/16 00:22:45;;;;;;;12.23;3.50;;;;;;;4.29;45.47;99650.50;4502032;31;20112;-83
2022/01/16 00:25:10;;;;;;;11.97;3.30;;;;;;;4.30;45.56;99660.03;4487732;31;20096;-83
2022/01/16 00:27:36;;;;;;;10.60;3.33;;;;;;;4.28;45.62;99654.81;4501974;31;20128;-83
2022/01/16 00:30:01;;;;;;;14.35;2.83;;;;;;;4.27;45.44;99691.38;4501932;31;20439;-84
2022/01/16 00:32:27;;;;;;;10.15;2.72;;;;;;;4.07;45.42;99678.59;4501985;31;20096;-85
2022/01/16 00:34:52;;;;;;;10.10;2.65;;;;;;;4.08;45.17;99628.19;4501945;31;20115;-84
2022/01/16 00:37:17;;;;;;;12.77;3.12;;;;;;;4.12;45.04;99648.97;4501932;31;20180;-84
2022/01/16 00:39:43;;;;;;;10.68;2.70;;;;;;;4.19;45.03;99667.13;4501861;31;20495;-84
2022/01/16 00:42:08;;;;;;;9.60;2.60;;;;;;;4.20;45.12;99655.84;4487384;31;20100;-87
2022/01/16 00:44:34;;;;;;;9.68;2.72;;;;;;;4.22;45.30;99635.81;4501823;31;20119;-85
2022/01/16 00:46:59;;;;;;;11.50;3.15;;;;;;;4.22;45.53;99646.25;4501789;31;20112;-85
2022/01/16 00:49:25;;;;;;;14.10;3.67;;;;;;;4.20;45.44;99614.97;4501833;31;20111;-84
2022/01/16 00:51:50;;;;;;;13.05;3.45;;;;;;;4.21;45.38;99634.94;4487321;31;20112;-84
2022/01/16 00:54:15;;;;;;;11.43;3.28;;;;;;;4.21;45.41;99640.16;4501765;31;20111;-84
2022/01/16 00:56:41;;;;;;;12.32;3.22;;;;;;;4.21;45.31;99641.88;4501578;31;20135;-84
2022/01/16 00:59:07;;;;;;;11.70;3.30;;;;;;;4.19;45.30;99654.09;4487248;31;20467;-84
2022/01/16 01:01:33;;;;;;;13.98;3.35;;;;;;;4.19;45.39;99634.13;4487153;31;20126;-84
2022/01/16 01:03:58;;;;;;;14.25;3.15;;;;;;;4.19;45.51;99638.44;4487384;31;20087;-84
2022/01/16 01:06:24;;;;;;;11.05;2.90;;;;;;;4.12;45.58;99635.09;4488888;31;20106;-84
2022/01/16 01:08:49;;;;;;;12.45;3.35;;;;;;;4.11;45.66;99628.13;4489510;31;20179;-84
2022/01/16 01:11:17;;;;;;;14.00;3.37;;;;;;;4.09;45.83;99635.97;4503849;31;20148;-84
2022/01/16 01:13:56;;;;;;;14.35;3.58;;;;;;;4.10;45.98;99657.72;4503916;31;20091;-83
2022/01/16 01:16:22;;;;;;;13.73;3.60;;;;;;;4.03;46.26;99659.53;4489394;31;20167;-83
2022/01/16 01:18:48;;;;;;;10.98;3.50;;;;;;;4.08;46.34;99675.13;4476560;31;20116;-84
2022/01/16 01:21:26;;;;;;;13.13;3.75;;;;;;;4.04;46.44;99570.00;4503932;31;20182;-84
2022/01/16 01:23:52;;;;;;;;;;;;;;;4.04;46.56;99546.56;4504318;31;20088;-83
2022/01/16 01:26:17;;;;;;;11.57;3.20;;;;;;;4.08;46.72;99570.84;4504039;31;19959;-84
2022/01/16 01:28:43;;;;;;;16.00;3.62;;;;;;;4.06;46.77;99568.25;4489617;31;20122;-83
2022/01/16 01:31:11;;;;;;;14.52;4.45;;;;;;;4.04;46.86;99569.16;4503942;31;20484;-83
2022/01/16 01:33:36;;;;;;;13.93;4.18;;;;;;;4.03;47.08;99590.88;4489897;31;20110;-83
2022/01/16 01:36:02;;;;;;;11.35;3.67;;;;;;;4.04;47.13;99603.91;4503816;31;20099;-83
2022/01/16 01:38:27;;;;;;;14.95;4.15;;;;;;;4.03;47.26;99623.03;4503821;31;20116;-83
2022/01/16 01:40:53;;;;;;;16.45;4.20;;;;;;;4.01;47.51;99652.63;4489592;31;20139;-83
2022/01/16 01:51:23;;;;;;;16.30;4.43;;;;;;;4.00;47.66;99661.31;4491401;31;20197;-84
2022/01/16 01:53:51;;;;;;;15.93;4.50;;;;;;;3.83;48.28;99643.31;4489221;31;20110;-83
2022/01/16 01:56:22;;;;;;;;;;;;;;;3.86;48.17;99618.06;4503778;31;20080;-83
2022/01/16 01:58:48;;;;;;;16.27;4.12;;;;;;;3.85;48.14;99615.50;4503580;31;20031;-83
2022/01/16 02:01:14;;;;;;;13.05;3.83;;;;;;;3.77;48.35;99618.19;4475844;31;20241;-83
2022/01/16 02:06:05;;;;;;;16.33;4.15;;;;;;;3.82;48.58;99615.53;4489035;31;20380;-83
2022/01/16 02:08:30;;;;;;;18.62;4.62;;;;;;;3.81;48.67;99614.66;4489215;31;20165;-83
2022/01/16 02:10:57;;;;;;;14.82;4.68;;;;;;;3.79;48.71;99618.19;4489000;31;20092;-83
2022/01/16 02:13:28;;;;;;;17.42;4.70;;;;;;;3.78;48.93;99621.66;4475943;31;20079;-83
2022/01/16 02:30:36;;;;;;;15.13;4.70;;;;;;;3.71;49.69;99650.41;4454048;32;20135;-83
2022/01/16 02:35:09;;;;;;;17.75;4.50;;;;;;;3.80;49.56;99641.59;4453881;32;20117;-83
2022/01/16 02:37:34;;;;;;;19.02;4.95;;;;;;;3.81;49.46;99656.38;4453929;32;20148;-83
2022/01/16 02:40:08;;;;;;;12.52;4.30;;;;;;;3.80;49.62;99643.34;4440906;32;20125;-83
2022/01/16 02:42:38;;;;;;;14.48;5.00;;;;;;;3.73;49.79;99653.00;4453940;32;20100;-83
2022/01/16 02:45:06;;;;;;;15.02;4.53;;;;;;;3.74;49.93;99647.75;4453892;32;20111;-83
2022/01/16 02:47:31;;;;;;;15.27;4.53;;;;;;;3.79;49.82;99644.25;4453892;32;20111;-83
2022/01/16 02:49:59;;;;;;;18.95;4.82;;;;;;;3.80;49.79;99645.94;4453814;32;20120;-83
2022/01/16 02:52:27;;;;;;;20.02;5.20;;;;;;;3.81;49.74;99655.50;4482974;31;20159;-83
2022/01/16 02:54:55;;;;;;;18.67;5.12;;;;;;;3.83;49.67;99648.53;4489375;31;20156;-83
2022/01/16 02:57:21;;;;;;;15.23;4.85;;;;;;;3.75;49.73;99653.84;4503271;31;20114;-83
2022/01/16 02:59:50;;;;;;;13.57;5.10;;;;;;;3.79;49.64;99649.47;4488828;31;20249;-83
2022/01/16 03:02:17;;;;;;;17.73;4.78;;;;;;;3.81;49.58;99645.09;4475543;31;20100;-83
2022/01/16 03:04:43;;;;;;;14.13;4.47;;;;;;;3.80;49.57;99640.75;4502987;31;20123;-83
2022/01/16 03:07:08;;;;;;;17.90;4.87;;;;;;;3.81;49.46;99632.06;4502983;31;20120;-83
2022/01/16 03:10:32;;;;;;;15.48;4.82;;;;;;;3.76;49.52;99631.25;4488641;31;20385;-83
2022/01/16 03:12:20;;;;;;;14.77;4.53;;;;;;;3.72;49.56;99639.09;4474499;31;20087;-83
2022/01/16 03:14:45;;;;;;;16.95;4.40;;;;;;;3.72;49.65;99623.44;4502824;31;20146;-83
2022/01/16 03:17:11;;;;;;;18.80;5.22;;;;;;;3.65;49.81;99629.66;4502726;31;20332;-83
2022/01/16 03:22:21;;;;;;;16.87;4.75;;;;;;;3.64;50.12;99633.13;4502866;31;20163;-83
2022/01/16 03:24:47;;;;;;;17.20;5.20;;;;;;;3.57;50.43;99635.81;4488590;31;20088;-83
2022/01/16 03:27:15;;;;;;;14.85;5.00;;;;;;;3.57;50.36;99621.03;4502440;31;20108;-83
2022/01/16 03:29:42;;;;;;;16.87;5.82;;;;;;;3.59;50.22;99624.50;4488078;31;20096;-83
2022/01/16 03:32:10;;;;;;;15.63;5.65;;;;;;;3.53;50.30;99621.97;4502789;31;20488;-83
2022/01/16 03:34:35;;;;;;;17.83;5.57;;;;;;;3.49;50.42;99626.34;4488407;31;20431;-83
2022/01/16 03:37:01;;;;;;;17.55;5.65;;;;;;;3.51;50.38;99621.97;4502812;31;20110;-83
2022/01/16 03:39:26;;;;;;;17.98;5.40;;;;;;;3.42;50.45;99623.84;4502731;31;20100;-83
2022/01/16 03:41:55;;;;;;;18.90;5.87;;;;;;;3.47;50.52;99619.44;4488267;31;20394;-83
2022/01/16 03:44:20;;;;;;;19.98;5.87;;;;;;;3.44;50.57;99614.25;4488883;31;20088;-82
2022/01/16 03:46:46;;;;;;;15.70;5.37;;;;;;;3.42;50.72;99616.03;4502808;31;20107;-82
2022/01/16 03:49:24;;;;;;;19.25;5.82;;;;;;;3.37;50.72;99618.69;4502854;31;20123;-82
2022/01/16 03:51:51;;;;;;;18.25;6.87;;;;;;;3.34;50.70;99611.78;4475458;31;20458;-82
2022/01/16 03:54:19;;;;;;;20.00;7.25;;;;;;;3.35;50.72;99605.69;4488580;31;20096;-82
2022/01/16 03:56:45;;;;;;;18.77;5.87;;;;;;;3.30;50.99;99604.91;4488279;31;20088;-82
2022/01/16 03:59:11;;;;;;;15.88;5.95;;;;;;;3.33;50.96;99606.59;4502607;31;20155;-82
2022/01/16 04:01:38;;;;;;;16.80;5.97;;;;;;;3.33;50.89;99602.25;4502514;31;20076;-82
2022/01/16 04:04:04;;;;;;;15.05;5.68;;;;;;;3.35;50.79;99600.47;4488102;31;20088;-83
2022/01/16 04:06:29;;;;;;;18.67;6.57;;;;;;;3.25;50.95;99600.62;4488039;31;20131;-82
2022/01/16 04:08:55;;;;;;;20.05;6.30;;;;;;;3.27;50.92;99604.06;4502352;31;20088;-82
2022/01/16 04:11:26;;;;;;;17.77;6.20;;;;;;;3.29;50.84;99600.56;4487999;31;20156;-82
2022/01/16 04:14:05;;;;;;;18.65;6.25;;;;;;;3.30;50.74;99606.63;4502361;31;20106;-82
2022/01/16 04:16:31;;;;;;;15.52;5.95;;;;;;;3.30;50.68;99610.13;4502531;31;20076;-82
2022/01/16 04:18:57;;;;;;;14.07;5.43;;;;;;;3.27;50.65;99612.75;4488146;31;20398;-82
2022/01/16 04:21:25;;;;;;;18.55;6.25;;;;;;;3.25;50.62;99611.91;4487797;31;20092;-82
2022/01/16 04:23:51;;;;;;;16.17;6.07;;;;;;;3.18;50.78;99607.63;4502234;31;20436;-82
2022/01/16 04:26:18;;;;;;;19.33;7.15;;;;;;;3.17;50.94;99610.25;4502107;31;20084;-82
2022/01/16 04:28:46;;;;;;;16.77;6.75;;;;;;;3.16;50.98;99614.59;4474570;31;20116;-82
2022/01/16 04:31:12;;;;;;;20.08;6.37;;;;;;;3.15;50.88;99608.53;4488111;31;20176;-83
2022/01/16 04:33:37;;;;;;;19.05;6.00;;;;;;;3.05;51.05;99616.44;4474442;31;20096;-83
2022/01/16 04:36:03;;;;;;;16.73;6.05;;;;;;;3.05;51.02;99619.06;4501946;31;20106;-83
2022/01/16 04:38:28;;;;;;;16.17;6.18;;;;;;;3.05;50.98;99619.94;4501950;31;20104;-83
2022/01/16 04:43:53;;;;;;;22.10;6.40;;;;;;;2.88;51.33;99620.09;4491750;31;20114;-83
2022/01/16 04:46:20;;;;;;;18.77;6.30;;;;;;;2.99;51.12;99612.16;4503998;31;20083;-83
2022/01/16 04:48:47;;;;;;;20.62;7.00;;;;;;;2.97;51.25;99597.47;4503808;31;20118;-82
2022/01/16 04:51:13;;;;;;;18.95;7.35;;;;;;;2.97;51.26;99592.25;4489627;31;20123;-81
2022/01/16 04:53:39;;;;;;;22.73;7.87;;;;;;;3.00;51.16;99602.66;4504181;31;20107;-82
2022/01/16 04:56:05;;;;;;;19.95;8.63;;;;;;;2.93;51.26;99599.22;4504219;31;20439;-82
2022/01/16 04:58:31;;;;;;;22.30;8.15;;;;;;;2.89;51.30;99590.59;4489840;31;20775;-82
2022/01/16 05:00:57;;;;;;;22.75;7.82;;;;;;;2.92;51.34;99597.53;4504049;31;20096;-82
2022/01/16 05:03:24;;;;;;;18.55;7.78;;;;;;;2.92;51.39;99597.53;4503802;31;20106;-82
2022/01/16 05:05:49;;;;;;;20.73;8.38;;;;;;;2.89;51.45;99595.78;4489720;31;20096;-83
2022/01/16 05:08:15;;;;;;;19.92;7.85;;;;;;;2.91;51.40;99598.38;4504027;31;20387;-83
2022/01/16 05:10:40;;;;;;;22.50;7.53;;;;;;;2.89;51.40;99584.53;4489344;31;20123;-83
2022/01/16 05:18:31;;;;;;;17.30;6.72;;;;;;;2.84;51.42;99596.72;4491653;31;20126;-82
2022/01/16 05:20:56;;;;;;;18.98;7.43;;;;;;;2.77;51.51;99588.13;4503771;31;20092;-83
2022/01/16 05:23:22;;;;;;;17.30;6.55;;;;;;;2.74;51.56;99582.94;4489090;31;20111;-83
2022/01/16 05:25:47;;;;;;;18.15;7.40;;;;;;;2.79;51.53;99585.50;4489643;31;20139;-82
2022/01/16 05:28:13;;;;;;;21.70;7.55;;;;;;;2.75;51.55;99580.31;4503684;31;20108;-82
2022/01/16 05:30:38;;;;;;;20.20;7.40;;;;;;;2.76;51.44;99586.38;4489267;31;20451;-82
2022/01/16 05:33:03;;;;;;;22.85;8.27;;;;;;;2.69;51.57;99593.41;4489285;31;20362;-83
2022/01/16 05:35:29;;;;;;;19.48;8.43;;;;;;;2.69;51.58;99595.16;4503584;31;20116;-83
2022/01/16 05:37:55;;;;;;;22.33;9.88;;;;;;;2.61;51.79;99595.22;4503609;31;20131;-82
2022/01/16 05:40:20;;;;;;;21.30;8.95;;;;;;;2.60;51.80;99596.06;4503650;31;20393;-82
2022/01/16 05:42:46;;;;;;;25.37;9.35;;;;;;;2.57;51.81;99598.72;4503397;31;20123;-82
2022/01/16 05:45:11;;;;;;;26.12;10.65;;;;;;;2.52;52.09;99606.56;4489130;31;20115;-83
2022/01/16 05:47:36;;;;;;;27.13;10.80;;;;;;;2.53;52.08;99608.28;4503575;31;20122;-83
2022/01/16 05:50:03;;;;;;;24.55;9.93;;;;;;;2.52;52.12;99600.50;4503462;31;20150;-82
2022/01/16 05:52:28;;;;;;;26.02;9.95;;;;;;;2.56;52.14;99608.25;4502963;31;20163;-82
2022/01/16 05:54:54;;;;;;;24.70;10.82;;;;;;;2.52;52.04;99609.16;4489104;31;20116;-82
2022/01/16 05:57:19;;;;;;;22.92;9.82;;;;;;;2.50;52.36;99610.06;4503486;31;20389;-82
2022/01/16 05:59:45;;;;;;;27.27;10.05;;;;;;;2.53;52.13;99616.09;4503436;31;20100;-83
2022/01/16 06:02:11;;;;;;;27.30;9.68;;;;;;;2.52;52.12;99627.34;4488775;31;20132;-82
2022/01/16 06:04:36;;;;;;;22.55;9.25;;;;;;;2.54;51.93;99616.94;4489126;31;20080;-82
2022/01/16 06:07:02;;;;;;;25.90;10.02;;;;;;;2.41;52.08;99623.97;4488970;31;20136;-82
2022/01/16 06:09:27;;;;;;;24.83;9.77;;;;;;;2.42;52.10;99617.91;4503365;31;20351;-82
2022/01/16 06:11:54;;;;;;;24.42;10.32;;;;;;;2.39;51.98;99625.72;4488950;31;20110;-82
2022/01/16 06:14:22;;;;;;;26.48;10.25;;;;;;;2.35;52.29;99624.03;4488912;31;20089;-82
2022/01/16 06:16:47;;;;;;;24.90;9.82;;;;;;;2.34;52.43;99620.56;4489050;31;20481;-82
2022/01/16 06:19:13;;;;;;;24.75;10.40;;;;;;;2.35;52.59;99631.84;4503283;31;20100;-82
2022/01/16 06:21:38;;;;;;;27.95;11.45;;;;;;;2.32;52.68;99626.69;4503246;31;20147;-83
2022/01/16 06:24:04;;;;;;;30.95;11.40;;;;;;;2.35;52.67;99630.09;4488861;31;20132;-82
2022/01/16 06:26:30;;;;;;;29.98;11.52;;;;;;;2.36;52.56;99626.63;4503248;31;20126;-83
2022/01/16 06:28:56;;;;;;;28.12;11.52;;;;;;;2.35;52.52;99630.09;4489064;31;20108;-83
2022/01/16 06:31:21;;;;;;;29.67;10.77;;;;;;;2.33;52.24;99630.97;4503412;31;20092;-83
2022/01/16 06:33:47;;;;;;;33.80;11.88;;;;;;;2.30;52.47;99625.81;4488843;31;20096;-82
2022/01/16 06:36:12;;;;;;;27.95;10.73;;;;;;;2.26;52.58;99630.19;4503151;31;20112;-83
2022/01/16 06:38:38;;;;;;;26.42;10.85;;;;;;;2.28;52.65;99635.34;4503075;31;20100;-83
2022/01/16 06:41:03;;;;;;;29.80;11.15;;;;;;;2.30;52.54;99639.69;4503132;31;20088;-83
2022/01/16 06:43:29;;;;;;;24.55;10.27;;;;;;;2.34;52.23;99630.97;4503005;31;20132;-82
2022/01/16 06:45:54;;;;;;;24.83;11.77;;;;;;;2.35;51.99;99634.44;4503017;31;20127;-83
2022/01/16 06:48:20;;;;;;;30.65;11.43;;;;;;;2.38;51.94;99634.44;4488768;31;20134;-83
2022/01/16 06:50:46;;;;;;;27.37;11.95;;;;;;;2.39;52.14;99636.13;4503089;31;20328;-83
2022/01/16 06:53:11;;;;;;;23.75;10.38;;;;;;;2.48;52.12;99635.22;4503038;31;20099;-83
2022/01/16 06:55:37;;;;;;;29.85;12.05;;;;;;;2.47;52.17;99631.75;4503010;31;20096;-83
2022/01/16 06:58:02;;;;;;;28.62;12.75;;;;;;;2.47;52.19;99636.97;4502809;31;20110;-83
2022/01/16 07:00:28;;;;;;;28.58;12.07;;;;;;;2.49;52.08;99634.31;4502835;31;20092;-83
2022/01/16 07:02:53;;;;;;;25.35;10.88;;;;;;;2.47;52.11;99631.75;4501914;31;20076;-83
2022/01/16 07:05:19;;;;;;;26.20;10.85;;;;;;;2.52;51.84;99629.97;4488716;31;20413;-83
2022/01/16 07:07:44;;;;;;;30.35;12.55;;;;;;;2.57;51.66;99627.34;4503317;31;20100;-83
2022/01/16 07:10:09;;;;;;;30.50;13.52;;;;;;;2.55;51.70;99627.34;4488899;31;20148;-83
2022/01/16 07:12:35;;;;;;;33.08;13.95;;;;;;;2.56;51.75;99628.19;4503188;31;20083;-83
2022/01/16 07:15:00;;;;;;;34.45;13.73;;;;;;;2.58;51.96;99623.84;4488779;31;20120;-83
2022/01/16 07:17:26;;;;;;;32.83;14.25;;;;;;;2.62;51.96;99627.28;4488727;31;20197;-83
2022/01/16 07:19:51;;;;;;;30.67;12.80;;;;;;;2.65;51.84;99629.88;4503111;31;20130;-83
2022/01/16 07:22:21;;;;;;;35.40;15.07;;;;;;;2.70;51.31;99647.12;4503103;31;20109;-83
2022/01/16 07:24:46;;;;;;;33.03;14.93;;;;;;;2.56;51.72;99644.66;4503013;31;20092;-83
2022/01/16 07:27:12;;;;;;;31.85;14.87;;;;;;;2.63;51.23;99665.44;4488730;31;20400;-83
2022/01/16 07:29:37;;;;;;;32.25;14.93;;;;;;;2.54;51.44;99654.22;4488669;31;20092;-82
2022/01/16 07:32:03;;;;;;;32.08;15.35;;;;;;;2.50;51.26;99657.72;4488544;31;20073;-82
2022/01/16 07:34:28;;;;;;;33.92;14.77;;;;;;;2.54;51.11;99654.22;4475560;31;20146;-83
2022/01/16 07:36:54;;;;;;;37.33;16.02;;;;;;;2.56;50.95;99647.25;4488468;31;20119;-83
2022/01/16 07:39:19;;;;;;;38.30;16.37;;;;;;;2.62;50.62;99645.50;4502970;31;20414;-83
2022/01/16 07:41:45;;;;;;;36.80;17.10;;;;;;;2.52;50.68;99642.09;4488470;31;20128;-82
2022/01/16 07:44:10;;;;;;;37.45;17.10;;;;;;;2.41;51.05;99649.13;4488245;31;20128;-84
2022/01/16 07:46:35;;;;;;;37.10;16.62;;;;;;;2.41;50.91;99646.53;4502679;31;20412;-84
2022/01/16 07:49:01;;;;;;;36.13;17.00;;;;;;;2.48;50.51;99651.66;4502486;31;20088;-82
2022/01/16 07:51:26;;;;;;;37.03;16.98;;;;;;;2.46;50.60;99650.81;4502421;31;20115;-83
2022/01/16 07:53:52;;;;;;;33.72;15.13;;;;;;;2.55;50.12;99653.34;4488092;31;20134;-81
2022/01/16 07:56:22;;;;;;;35.20;16.23;;;;;;;2.57;50.30;99658.56;4502508;31;20117;-82
2022/01/16 07:58:52;;;;;;;34.58;15.43;;;;;;;2.56;50.43;99652.47;4487944;31;20099;-83
2022/01/16 08:01:18;;;;;;;33.88;16.45;;;;;;;2.68;49.74;99653.25;4487737;31;20493;-81
2022/01/16 08:03:44;;;;;;;36.58;16.08;;;;;;;2.62;50.16;99656.75;4488109;31;20140;-81
2022/01/16 08:06:12;;;;;;;36.42;15.98;;;;;;;2.55;50.25;99653.34;4488046;31;20205;-79
2022/01/16 08:08:38;;;;;;;37.55;17.00;;;;;;;2.63;50.32;99649.84;4475150;31;20144;-80
2022/01/16 08:11:04;;;;;;;35.70;16.45;;;;;;;2.79;49.84;99642.75;4487814;31;20144;-81
2022/01/16 08:13:30;;;;;;;35.90;16.70;;;;;;;2.79;49.35;99633.19;4474427;31;20134;-81
2022/01/16 08:15:55;;;;;;;37.22;16.02;;;;;;;2.67;49.66;99623.78;4502129;31;20096;-81
2022/01/16 08:18:20;;;;;;;40.10;17.52;;;;;;;2.69;49.66;99623.75;4488082;31;20092;-80
2022/01/16 08:20:46;;;;;;;39.85;17.77;;;;;;;2.65;49.99;99635.06;4502155;31;20514;-82
2022/01/16 08:23:11;;;;;;;38.35;16.37;;;;;;;2.72;49.58;99629.81;4487742;31;20388;-81
2022/01/16 08:25:38;;;;;;;37.53;17.58;;;;;;;2.73;49.75;99641.06;4502064;31;20110;-83
2022/01/16 08:28:04;;;;;;;38.97;16.90;;;;;;;2.77;49.63;99642.75;4469433;31;20095;-80
2022/01/16 08:30:29;;;;;;;35.97;16.58;;;;;;;2.91;49.18;99635.66;4474198;32;20100;-82
2022/01/16 08:32:55;;;;;;;36.08;17.42;;;;;;;2.89;49.27;99639.19;4486119;32;20092;-83
2022/01/16 08:35:21;;;;;;;34.65;16.90;;;;;;;2.91;48.91;99630.47;4486246;32;20141;-83
2022/01/16 08:37:47;;;;;;;36.65;16.77;;;;;;;2.87;48.86;99628.78;4471901;32;20172;-84
2022/01/16 08:40:13;;;;;;;33.67;16.27;;;;;;;2.90;48.86;99620.94;4486195;32;20092;-83
2022/01/16 08:42:42;;;;;;;35.83;16.05;;;;;;;2.86;48.96;99611.44;4471934;32;20552;-82
2022/01/16 08:45:08;;;;;;;35.58;16.33;;;;;;;2.82;48.96;99604.56;4471383;31;20112;-85
2022/01/16 08:47:34;;;;;;;35.05;16.48;;;;;;;2.85;49.02;99606.25;4480023;32;20518;-83
2022/01/16 08:50:01;;;;;;;34.55;15.07;;;;;;;3.03;48.52;99600.00;4498793;31;20210;-82
2022/01/16 08:52:27;;;;;;;36.22;15.38;;;;;;;3.10;48.29;99597.31;4463750;32;20131;-82
2022/01/16 08:54:56;;;;;;;34.40;14.87;;;;;;;3.09;48.53;99589.50;4485325;31;20088;-83
2022/01/16 08:57:21;;;;;;;34.90;15.77;;;;;;;3.11;48.40;99577.31;4494178;31;20116;-82
2022/01/16 08:59:47;;;;;;;36.15;14.93;;;;;;;3.18;47.99;99588.56;4486778;31;20461;-82
2022/01/16 09:02:13;;;;;;;30.40;15.05;;;;;;;3.08;48.14;99577.38;4487823;31;20092;-82
2022/01/16 09:04:38;;;;;;;30.02;13.60;;;;;;;2.88;48.82;99591.47;4467355;31;20164;-83
2022/01/16 09:07:04;;;;;;;32.80;15.30;;;;;;;2.92;48.85;99582.75;4486605;31;20372;-83
2022/01/16 09:09:31;;;;;;;32.25;14.07;;;;;;;2.99;48.92;99580.09;4500818;31;20107;-83
2022/01/16 09:11:56;;;;;;;31.90;13.57;;;;;;;3.01;48.82;99570.50;4486891;31;20108;-83
2022/01/16 09:14:24;;;;;;;34.45;14.90;;;;;;;3.08;48.61;99566.97;4498439;31;20165;-83
2022/01/16 09:16:50;;;;;;;29.15;14.07;;;;;;;3.31;47.59;99572.75;4470701;32;20104;-83
2022/01/16 09:19:15;;;;;;;32.97;14.25;;;;;;;3.32;47.54;99560.59;4478754;31;20100;-83
2022/01/16 09:21:41;;;;;;;30.50;13.60;;;;;;;3.22;47.79;99565.06;4500686;31;20173;-83
2022/01/16 09:24:06;;;;;;;35.25;15.38;;;;;;;3.39;47.54;99564.00;4486338;31;20096;-83
2022/01/16 09:26:32;;;;;;;31.62;14.68;;;;;;;3.50;47.20;99568.19;4474160;31;20456;-83
2022/01/16 09:28:58;;;;;;;30.58;14.50;;;;;;;3.57;46.82;99568.09;4503205;31;20088;-84
2022/01/16 09:31:23;;;;;;;33.42;14.40;;;;;;;3.70;46.58;99562.69;4493986;31;20111;-84
2022/01/16 09:33:48;;;;;;;35.00;14.77;;;;;;;3.74;46.43;99566.97;4499189;31;20664;-83
2022/01/16 09:36:14;;;;;;;32.00;13.70;;;;;;;3.78;46.13;99565.19;4489833;31;20097;-82
2022/01/16 09:38:40;;;;;;;31.75;14.50;;;;;;;3.91;46.02;99555.44;4488670;31;20401;-83
2022/01/16 09:41:06;;;;;;;32.97;15.75;;;;;;;3.90;46.14;99554.59;4488564;31;20159;-83
2022/01/16 09:43:33;;;;;;;31.35;13.90;;;;;;;3.86;46.10;99544.22;4503011;31;20112;-82
2022/01/16 09:46:00;;;;;;;36.60;15.75;;;;;;;3.96;45.73;99553.63;4475701;31;20101;-82
2022/01/16 09:48:25;;;;;;;34.63;14.93;;;;;;;3.96;45.54;99542.31;4487201;32;20108;-82
2022/01/16 09:50:51;;;;;;;33.55;15.27;;;;;;;3.96;45.75;99545.81;4492765;31;20108;-82
2022/01/16 09:53:17;;;;;;;32.15;13.82;;;;;;;4.02;45.74;99547.44;4488404;31;20451;-82
2022/01/16 09:55:42;;;;;;;32.97;14.48;;;;;;;4.12;45.40;99538.59;4502909;31;20454;-81
2022/01/16 09:58:11;;;;;;;31.62;13.85;;;;;;;4.07;45.58;99535.19;4489771;31;20153;-82
2022/01/16 10:00:37;;;;;;;33.88;15.00;;;;;;;3.93;46.01;99533.66;4488621;31;20171;-83
2022/01/16 10:03:03;;;;;;;34.20;16.40;;;;;;;3.92;46.04;99536.28;4502720;31;20099;-82
2022/01/16 10:05:29;;;;;;;31.08;14.13;;;;;;;3.97;46.00;99525.81;4488348;31;20115;-82
2022/01/16 10:07:56;;;;;;;35.00;15.48;;;;;;;3.99;46.06;99524.88;4488430;31;20096;-83
2022/01/16 10:10:30;;;;;;;31.48;15.05;;;;;;;3.92;46.15;99531.97;4489801;31;20454;-82
2022/01/16 10:13:04;;;;;;;33.65;15.57;;;;;;;4.03;45.95;99516.13;4488495;31;20606;-83
2022/01/16 10:15:31;;;;;;;35.13;15.25;;;;;;;3.97;46.12;99513.63;4476189;31;20129;-83
2022/01/16 10:17:59;;;;;;;31.02;13.85;;;;;;;3.86;46.58;99512.94;4490050;31;20108;-83
2022/01/16 10:20:26;;;;;;;32.28;13.98;;;;;;;3.84;46.62;99507.75;4472543;32;20136;-82
2022/01/16 10:22:57;;;;;;;;;;;;;;;3.99;46.53;99505.78;4475577;31;20119;-82
2022/01/16 10:25:44;;;;;;;32.03;14.00;;;;;;;3.83;46.91;99507.78;4488470;31;19983;-83
2022/01/16 10:28:14;;;;;;;34.63;13.55;;;;;;;3.73;47.88;99505.31;4501307;31;20138;-84
2022/01/16 10:30:49;;;;;;;33.85;14.45;;;;;;;3.87;47.46;99510.31;4488370;31;20184;-84
2022/01/16 10:33:17;;;;;;;32.30;15.00;;;;;;;3.76;47.38;99503.56;4494560;31;20758;-84
2022/01/16 10:35:43;;;;;;;;;;;;;;;3.85;47.46;99499.06;4488654;31;20084;-83
2022/01/16 10:38:11;;;;;;;36.10;14.80;;;;;;;3.96;47.26;99504.09;4488153;31;19971;-84
2022/01/16 10:40:39;;;;;;;36.08;15.32;;;;;;;3.88;47.36;99492.91;4473712;32;20571;-83
2022/01/16 10:43:13;;;;;;;36.60;15.10;;;;;;;3.78;47.89;99497.41;4486521;32;20097;-86
2022/01/16 10:45:39;;;;;;;40.90;15.98;;;;;;;3.86;47.79;99482.53;4488233;31;20447;-90
2022/01/16 10:48:05;;;;;;;33.67;14.05;;;;;;;4.03;47.44;99484.00;4488228;31;20111;-91
2022/01/16 10:50:42;;;;;;;38.72;15.85;;;;;;;4.05;47.43;99477.84;4499294;31;20169;-92
2022/01/16 10:53:23;;;;;;;34.50;15.52;;;;;;;4.22;47.35;99479.34;4494110;31;20088;-89
2022/01/16 10:55:53;;;;;;;35.72;15.50;;;;;;;4.28;47.02;99474.84;4475913;31;20122;-89
2022/01/16 10:58:25;;;;;;;35.00;15.90;;;;;;;4.39;46.87;99479.88;4500370;31;20100;-88
2022/01/16 11:01:00;;;;;;;39.70;16.65;;;;;;;4.50;46.59;99477.06;4492308;31;20535;-89
2022/01/16 11:03:26;;;;;;;37.45;16.92;;;;;;;4.47;46.70;99472.78;4485407;31;20091;-87
2022/01/16 11:05:55;;;;;;;34.38;16.58;;;;;;;4.46;46.72;99470.19;4485567;32;20096;-87
2022/01/16 11:08:22;;;;;;;38.35;16.25;;;;;;;4.53;46.73;99470.03;4486534;31;20593;-87
2022/01/16 11:10:50;;;;;;;32.15;15.55;;;;;;;4.67;46.35;99463.69;4485539;32;20104;-88
2022/01/16 11:13:21;;;;;;;37.05;16.42;;;;;;;4.65;46.58;99463.72;4485502;32;20088;-89
2022/01/16 11:15:52;;;;;;;37.33;16.77;;;;;;;4.68;46.59;99455.84;4472528;32;20154;-88
2022/01/16 11:18:20;;;;;;;37.42;16.52;;;;;;;4.80;46.43;99459.09;4485483;32;20218;-94
2022/01/16 11:23:48;;;;;;;38.05;17.35;;;;;;;4.83;46.43;99461.63;4486608;31;20104;-89
2022/01/16 11:26:16;;;;;;;39.63;16.58;;;;;;;4.97;46.24;99448.31;4473471;32;20113;-88
2022/01/16 11:28:41;;;;;;;41.58;17.45;;;;;;;4.93;46.29;99450.13;4486489;31;20143;-82
2022/01/16 11:31:10;;;;;;;36.95;16.40;;;;;;;5.00;46.10;99443.00;4471587;32;20146;-83
2022/01/16 11:33:37;;;;;;;37.58;17.30;;;;;;;5.06;46.18;99435.03;4482011;31;20108;-88
2022/01/16 11:36:19;;;;;;;36.40;16.35;;;;;;;5.04;46.45;99427.25;4477547;31;20088;-88
2022/01/16 11:39:03;;;;;;;40.22;17.50;;;;;;;5.13;46.28;99420.97;4479891;32;20220;-87
2022/01/16 11:41:39;;;;;;;34.38;16.67;;;;;;;5.17;46.26;99422.59;4485474;32;20092;-87
2022/01/16 11:44:20;;;;;;;38.25;17.80;;;;;;;5.24;46.19;99431.19;4484871;31;20560;-88
2022/01/16 11:46:50;;;;;;;35.85;17.87;;;;;;;5.19;46.28;99420.81;4485059;32;20149;-88
2022/01/16 11:49:19;;;;;;;41.35;18.05;;;;;;;5.27;46.05;99420.66;4483916;32;20123;-88
2022/01/16 11:51:51;;;;;;;37.17;17.80;;;;;;;5.31;45.87;99412.72;4471353;32;20123;-88
2022/01/16 11:54:20;;;;;;;41.37;19.12;;;;;;;5.12;46.26;99416.66;4485482;31;20123;-88
2022/01/16 11:56:46;;;;;;;35.47;18.05;;;;;;;5.15;46.26;99406.13;4485666;31;20156;-87
2022/01/16 11:59:11;;;;;;;42.13;18.12;;;;;;;5.26;46.00;99409.34;4485512;31;20088;-89
2022/01/16 12:01:45;;;;;;;43.33;19.17;;;;;;;5.30;45.98;99403.16;4485257;31;20145;-89
2022/01/16 12:04:29;;;;;;;40.78;18.30;;;;;;;5.25;46.22;99402.41;4485523;31;20134;-88
2022/01/16 12:07:00;;;;;;;41.80;20.23;;;;;;;5.28;46.24;99402.34;4485527;31;20080;-89
2022/01/16 12:09:35;;;;;;;41.70;18.58;;;;;;;5.19;46.33;99399.06;4485458;31;20591;-90
2022/01/16 12:12:01;;;;;;;38.15;17.85;;;;;;;5.25;46.31;99389.38;4485546;31;20104;-89